• Join FlightAware (Why Join?)
  • Login
  • US Flag 
04:09AM EDT


 

Airport Tracker/Info


-or-


 

Live Flight TrackerFlight Track Log ✈ UCA4838 ✈ 31-Jul-2013 ✈ KROC - KEWR

Flight Track Log - Related Links

Times and Time Zones

All times are in EDT time to prevent confusion due to time zone crossing. See the UCA4838 flight status page for this flight to view local times or setup timezone preferences in your user account.

Time Position Orientation Groundspeed Altitude Reporting Facility
EDT Latitude Longitude Course Direction KTS MPH feet Rate Location/Type
06:14AM 43.1075 -77.6883 217° Southwest 97 112 1,000  Level Cleveland Center
06:15AM 43.0933 -77.7031 217° Southwest 123 142 1,600 1,020 Climbing Cleveland Center
06:16AM 43.0542 -77.7133 191° South 177 204 2,500 1,020 Climbing Cleveland Center
06:17AM 43.0267 -77.6239 113° Southeast 210 242 4,100 1,200 Climbing Cleveland Center
06:18AM 43.0042 -77.5567 115° Southeast 205 236 5,500 1,320 Climbing Cleveland Center
06:19AM 42.9814 -77.4869 114° Southeast 205 236 6,800 1,200 Climbing Cleveland Center
06:20AM 42.9608 -77.4169 112° Southeast 200 230 8,000 1,080 Climbing Cleveland Center
06:21AM 42.9381 -77.3472 114° Southeast 200 230 9,000 960 Climbing Cleveland Center
06:22AM 42.9153 -77.2747 113° Southeast 200 230 10,000 960 Climbing Cleveland Center
06:23AM 42.8903 -77.2022 115° Southeast 205 236 11,000 840 Climbing Cleveland Center
06:25AM 42.8475 -77.0642 113° Southeast 217 250 12,500 720 Climbing New York Center
06:26AM 42.8278 -77.0072 115° Southeast 222 255 12,800 240 Climbing Boston Center
06:27AM 42.7972 -76.9342 120° Southeast 234 269 13,000 60 Climbing Boston Center
06:28AM 42.7586 -76.8522 123° Southeast 246 283 13,000  Level Boston Center
06:29AM 42.7206 -76.7619 120° Southeast 258 297 13,000  Level Boston Center
06:30AM 42.6822 -76.6744 121° Southeast 263 303 13,000  Level Boston Center
06:31AM 42.6436 -76.5900 122° Southeast 268 308 13,000  Level Boston Center
06:32AM 42.6050 -76.5025 121° Southeast 268 308 13,000  Level Boston Center
06:33AM 42.5642 -76.4153 122° Southeast 268 308 13,000 -60 Level Boston Center
06:34AM 42.5256 -76.3256 120° Southeast 268 308 12,900  Descending Boston Center
06:35AM 42.4947 -76.2558 121° Southeast 268 308 13,000  Climbing Boston Center
06:36AM 42.4461 -76.1489 122° Southeast 273 314 13,000  Level Boston Center
06:37AM 42.4033 -76.0564 122° Southeast 279 321 13,000  Level Boston Center
06:38AM 42.3683 -75.9756 120° Southeast 271 312 13,000  Level Boston Center
06:39AM 42.3253 -75.8833 122° Southeast 276 318 13,000  Level Boston Center
06:40AM 42.2825 -75.7825 120° Southeast 269 310 13,000  Level Boston Center
06:41AM 42.2431 -75.6992 123° Southeast 274 315 13,000  Level Boston Center
06:42AM 42.2017 -75.6128 123° Southeast 274 315 13,000  Level Boston Center
06:43AM 42.1625 -75.5269 122° Southeast 274 315 13,000  Level Boston Center
06:44AM 42.1211 -75.4408 123° Southeast 274 315 13,000  Level Boston Center
06:45AM 42.0817 -75.3522 121° Southeast 274 315 13,000 -60 Level Boston Center
06:46AM 42.0442 -75.2639 120° Southeast 274 315 12,900  Descending Boston Center
06:47AM 42.0111 -75.1728 116° Southeast 274 315 13,000  Climbing Boston Center
06:48AM 41.9756 -75.0819 118° Southeast 274 315 13,000  Level Boston Center
06:49AM 41.9461 -75.0025 116° Southeast 274 315 13,000 -360 Level Boston Center
06:50AM 41.8897 -74.9167 131° Southeast 269 310 12,300 -960 Descending Boston Center
06:51AM 41.8261 -74.8750 154° Southeast 275 316 11,100 -1,140 Descending Boston Center
06:52AM 41.7481 -74.8219 153° Southeast 282 325 9,800 -1,320 Descending Boston Center
06:53AM 41.6636 -74.7633 153° Southeast 287 330 8,300 -1,320 Descending Boston Center
06:54AM 41.5939 -74.7164 153° Southeast 287 330 7,200 -840 Descending Boston Center
06:55AM 41.5236 -74.6889 164° South 274 315 6,600 -600 Descending Boston Center
06:56AM 41.4508 -74.6725 170° South 263 303 6,000 -240 Descending Boston Center
06:58AM 41.3167 -74.6333 168° South 262 302 6,000  Level New York TRACON
06:59AM 41.2500 -74.6000 159° South 261 300 6,000  Level New York TRACON
07:00AM 41.1833 -74.5667 159° South 257 296 6,000  Level New York TRACON
07:01AM 41.1333 -74.5333 153° Southeast 258 297 6,000  Level New York TRACON
07:02AM 41.0833 -74.4667 135° Southeast 260 299 6,000  Level New York TRACON
07:03AM 41.0333 -74.4000 135° Southeast 249 287 6,000  Level New York TRACON
07:03AM 40.9667 -74.3833 169° South 251 289 6,000  Level New York TRACON
07:04AM 40.9333 -74.4333 229° Southwest 231 266 6,000  Level New York TRACON
07:05AM 40.8833 -74.5000 225° Southwest 233 268 6,000  Level New York TRACON
07:06AM 40.8333 -74.5667 225° Southwest 236 272 6,000  Level New York TRACON
07:07AM 40.8000 -74.6167 229° Southwest 243 280 6,000  Level New York TRACON
07:08AM 40.7333 -74.6333 191° South 240 276 6,000 -240 Level New York TRACON
07:09AM 40.6667 -74.6500 191° South 250 288 5,600 -540 Descending New York TRACON
07:10AM 40.6000 -74.6167 159° South 239 275 5,000 -300 Descending New York TRACON
07:11AM 40.5500 -74.5833 153° Southeast 234 269 5,000  Level New York TRACON
07:12AM 40.4833 -74.5333 150° Southeast 242 278 5,000 -300 Level New York TRACON
07:13AM 40.4333 -74.5000 153° Southeast 223 257 4,500 -540 Descending New York TRACON
07:14AM 40.3833 -74.4500 143° Southeast 212 244 4,000 -420 Descending New York TRACON
07:15AM 40.3500 -74.3833 123° Southeast 221 254 3,700 -540 Descending New York TRACON
07:16AM 40.3833 -74.3500 37° Northeast 204 235 3,000 -360 Descending New York TRACON
07:17AM 40.4500 -74.3333 11° North 206 237 3,000  Level New York TRACON
07:18AM 40.5000 -74.2833 37° Northeast 201 231 3,000 -60 Level New York TRACON
07:19AM 40.5333 -74.2667 21° North 181 208 2,900 -540 Descending New York TRACON
07:20AM 40.5833 -74.2333 27° Northeast 181 208 2,000 -900 Descending New York TRACON
07:21AM 40.6333 -74.2000 27° Northeast 171 197 1,200 -900 Descending New York TRACON
07:22AM 40.6667 -74.1833 21° North 135 155 400 -840 Descending New York TRACON
07:24AM 40.6833 -74.1667 31° Northeast  Level FlightAware Approximate
07:31AM 40.6925 -74.1687 31° Northeast  Level Estimated
07:32AM 40.6925 -74.1687 31° Northeast  Level Estimated